Time;durP1;ratioP1;P1;durP2;ratioP2;P2;SDS_P1;SDS_P2;PMS_P1;PMS_P2;Temp;Humidity;BMP_temperature;BMP_pressure;BME280_temperature;BME280_humidity;BME280_pressure;Samples;Min_cycle;Max_cycle;Signal;HPM_P1;HPM_P2
2022/06/10 00:01:13;;;;;;;2.67;2.40;;;;;;;;;;5085512;27;20231;-63
2022/06/10 00:03:41;;;;;;;3.20;2.80;;;;;;;;;;5083223;28;20204;-63
2022/06/10 00:06:09;;;;;;;3.63;2.43;;;;;;;;;;5083158;28;20211;-63
2022/06/10 00:08:47;;;;;;;2.40;2.20;;;;;;;;;;5084669;28;20226;-63
2022/06/10 00:11:15;;;;;;;4.40;2.33;;;;;;;;;;5081471;28;20320;-63
2022/06/10 00:13:43;;;;;;;3.73;2.67;;;;;;;;;;5080759;28;20210;-63
2022/06/10 00:16:16;;;;;;;3.17;2.53;;;;;;;;;;5110764;28;20261;-63
2022/06/10 00:18:43;;;;;;;3.33;2.30;;;;;;;;;;5101057;27;20473;-64
2022/06/10 00:21:12;;;;;;;4.80;2.50;;;;;;;;;;5080625;27;20230;-63
2022/06/10 00:23:40;;;;;;;6.10;2.70;;;;;;;;;;5087294;28;20215;-63
2022/06/10 00:26:07;;;;;;;3.13;2.37;;;;;;;;;;5083255;27;20211;-63
2022/06/10 00:28:35;;;;;;;2.27;2.17;;;;;;;;;;5089702;27;20323;-63
2022/06/10 00:31:03;;;;;;;3.00;2.33;;;;;;;;;;5103721;27;20207;-63
2022/06/10 00:33:33;;;;;;;2.67;2.20;;;;;;;;;;5090471;27;20300;-63
2022/06/10 00:36:01;;;;;;;4.27;2.20;;;;;;;;;;5112277;27;20201;-63
2022/06/10 00:38:28;;;;;;;5.87;2.40;;;;;;;;;;5113840;27;20223;-63
2022/06/10 00:40:56;;;;;;;3.77;2.40;;;;;;;;;;5100874;27;21337;-63
2022/06/10 00:43:26;;;;;;;3.07;2.37;;;;;;;;;;5094242;27;20225;-63
2022/06/10 00:45:53;;;;;;;5.13;2.83;;;;;;;;;;5087449;27;20295;-63
2022/06/10 00:48:24;;;;;;;2.57;2.30;;;;;;;;;;5089616;27;20222;-63
2022/06/10 00:50:52;;;;;;;3.70;2.40;;;;;;;;;;5088642;27;20208;-63
2022/06/10 00:53:21;;;;;;;2.83;2.20;;;;;;;;;;5085534;27;20644;-63
2022/06/10 00:55:54;;;;;;;4.03;2.30;;;;;;;;;;5101909;27;20272;-63
2022/06/10 00:58:27;;;;;;;3.73;2.57;;;;;;;;;;5082763;27;20219;-63
2022/06/10 01:00:55;;;;;;;3.20;2.50;;;;;;;;;;5082611;27;20200;-63
2022/06/10 01:03:23;;;;;;;4.70;2.20;;;;;;;;;;5110436;27;20312;-63
2022/06/10 01:05:51;;;;;;;4.77;2.37;;;;;;;;;;5105782;27;20204;-63
2022/06/10 01:08:19;;;;;;;4.80;2.20;;;;;;;;;;5099166;27;20669;-63
2022/06/10 01:11:02;;;;;;;2.57;2.20;;;;;;;;;;5092932;27;20261;-63
2022/06/10 01:13:41;;;;;;;4.33;2.40;;;;;;;;;;5087631;27;20211;-63
2022/06/10 01:16:13;;;;;;;4.10;2.57;;;;;;;;;;5095660;27;20268;-63
2022/06/10 01:18:48;;;;;;;3.97;2.47;;;;;;;;;;5108345;27;20231;-63
2022/06/10 01:21:18;;;;;;;2.60;2.40;;;;;;;;;;5086229;27;20235;-62
2022/06/10 01:23:46;;;;;;;4.77;3.10;;;;;;;;;;5084510;27;20214;-62
2022/06/10 01:26:32;;;;;;;9.30;5.10;;;;;;;;;;5086187;27;20216;-62
2022/06/10 01:29:12;;;;;;;35.60;18.47;;;;;;;;;;5086277;27;20212;-62
2022/06/10 01:31:47;;;;;;;11.43;6.40;;;;;;;;;;5087468;27;20684;-63
2022/06/10 01:34:14;;;;;;;6.50;5.10;;;;;;;;;;5102578;27;20214;-63
2022/06/10 01:37:01;;;;;;;5.07;3.33;;;;;;;;;;5087342;27;20297;-62
2022/06/10 01:39:28;;;;;;;5.17;3.33;;;;;;;;;;5103607;27;20570;-62
2022/06/10 01:41:56;;;;;;;4.73;3.20;;;;;;;;;;5083118;27;20238;-63
2022/06/10 01:44:26;;;;;;;4.50;3.00;;;;;;;;;;5084033;27;20219;-63
2022/06/10 01:47:00;;;;;;;4.30;3.20;;;;;;;;;;5085803;27;20231;-63
2022/06/10 01:49:29;;;;;;;3.70;3.00;;;;;;;;;;5091720;27;20271;-63
2022/06/10 01:52:08;;;;;;;6.43;2.97;;;;;;;;;;5088041;27;20227;-62
2022/06/10 01:54:42;;;;;;;3.13;2.67;;;;;;;;;;5083288;27;20218;-63
2022/06/10 01:57:13;;;;;;;4.07;2.73;;;;;;;;;;5083165;27;20287;-62
2022/06/10 01:59:44;;;;;;;3.83;3.10;;;;;;;;;;5083327;27;20256;-63
2022/06/10 02:02:15;;;;;;;5.83;3.00;;;;;;;;;;5085132;27;20223;-63
2022/06/10 02:04:47;;;;;;;3.53;2.80;;;;;;;;;;5109363;27;20252;-62
2022/06/10 02:07:17;;;;;;;4.20;2.63;;;;;;;;;;5082944;27;20214;-62
2022/06/10 02:09:47;;;;;;;2.97;2.60;;;;;;;;;;5096493;27;20203;-63
2022/06/10 02:12:23;;;;;;;3.87;2.60;;;;;;;;;;5089431;27;20507;-62
2022/06/10 02:14:56;;;;;;;5.93;2.73;;;;;;;;;;5095323;27;20574;-63
2022/06/10 02:17:25;;;;;;;5.50;2.73;;;;;;;;;;5087748;27;20633;-62
2022/06/10 02:19:55;;;;;;;6.20;3.00;;;;;;;;;;5092026;27;20204;-63
2022/06/10 02:22:22;;;;;;;2.73;2.43;;;;;;;;;;5088654;27;20323;-62
2022/06/10 02:24:52;;;;;;;2.97;2.40;;;;;;;;;;5103997;27;20212;-62
2022/06/10 02:27:22;;;;;;;4.00;2.83;;;;;;;;;;5107147;27;20207;-62
2022/06/10 02:29:56;;;;;;;2.43;2.23;;;;;;;;;;5088765;27;20211;-62
2022/06/10 02:32:26;;;;;;;3.33;2.40;;;;;;;;;;5104629;27;20227;-63
2022/06/10 02:34:55;;;;;;;6.13;2.53;;;;;;;;;;5096615;27;20215;-62
2022/06/10 02:37:23;;;;;;;2.30;2.07;;;;;;;;;;5109302;27;20219;-63
2022/06/10 02:40:02;;;;;;;3.60;2.30;;;;;;;;;;5102429;27;20203;-62
2022/06/10 02:42:46;;;;;;;2.87;2.13;;;;;;;;;;5087011;27;20825;-62
2022/06/10 02:45:26;;;;;;;4.40;2.20;;;;;;;;;;5085614;27;20210;-62
2022/06/10 02:48:00;;;;;;;3.07;2.30;;;;;;;;;;5087250;27;20588;-62
2022/06/10 02:50:27;;;;;;;4.97;2.43;;;;;;;;;;5091559;27;20204;-62
2022/06/10 02:52:55;;;;;;;3.20;2.50;;;;;;;;;;5091695;27;20227;-62
2022/06/10 02:55:24;;;;;;;2.80;2.60;;;;;;;;;;5083149;27;20226;-62
2022/06/10 03:01:12;;;;;;;4.00;2.57;;;;;;;;;;5103039;27;20203;-62
2022/06/10 03:03:43;;;;;;;6.50;2.90;;;;;;;;;;5082775;27;20198;-62
2022/06/10 03:06:10;;;;;;;2.80;2.60;;;;;;;;;;5089439;27;20806;-62
2022/06/10 03:08:41;;;;;;;3.90;2.83;;;;;;;;;;5105195;27;20216;-62
2022/06/10 03:11:11;;;;;;;4.00;2.67;;;;;;;;;;5101609;27;20270;-62
2022/06/10 03:13:41;;;;;;;3.80;2.60;;;;;;;;;;5101092;27;20210;-63
2022/06/10 03:16:28;;;;;;;4.63;2.70;;;;;;;;;;5116631;27;20215;-62
2022/06/10 03:19:00;;;;;;;5.37;3.13;;;;;;;;;;5105002;27;20238;-62
2022/06/10 03:21:27;;;;;;;4.83;2.80;;;;;;;;;;5105946;28;20215;-64
2022/06/10 03:23:54;;;;;;;2.97;2.53;;;;;;;;;;5098848;28;20196;-63
2022/06/10 03:26:40;;;;;;;4.53;2.80;;;;;;;;;;5104037;28;20207;-62
2022/06/10 03:29:08;;;;;;;6.37;3.30;;;;;;;;;;5106374;27;20230;-62
2022/06/10 03:31:42;;;;;;;4.20;2.70;;;;;;;;;;5100839;27;20326;-62
2022/06/10 03:34:10;;;;;;;3.70;2.70;;;;;;;;;;5103003;27;20345;-63
2022/06/10 03:36:37;;;;;;;3.07;2.77;;;;;;;;;;5105815;27;20199;-63
2022/06/10 03:39:06;;;;;;;3.13;2.33;;;;;;;;;;5090274;28;20223;-62
2022/06/10 03:41:35;;;;;;;3.07;2.20;;;;;;;;;;5087696;28;20701;-62
2022/06/10 03:44:04;;;;;;;4.40;2.70;;;;;;;;;;5085992;27;20207;-62
2022/06/10 03:46:32;;;;;;;5.57;3.60;;;;;;;;;;5084948;28;20208;-62
2022/06/10 03:49:06;;;;;;;5.23;3.70;;;;;;;;;;5088892;27;20228;-62
2022/06/10 03:51:34;;;;;;;5.00;3.50;;;;;;;;;;5109106;27;20231;-62
2022/06/10 03:54:01;;;;;;;4.03;2.63;;;;;;;;;;5079684;28;20208;-62
2022/06/10 03:56:31;;;;;;;3.73;2.70;;;;;;;;;;5080934;27;20207;-62
2022/06/10 03:58:58;;;;;;;6.20;4.00;;;;;;;;;;5084959;27;20749;-62
2022/06/10 04:01:26;;;;;;;7.43;4.50;;;;;;;;;;5088773;27;20224;-62
2022/06/10 04:03:53;;;;;;;10.03;5.97;;;;;;;;;;5087725;27;20687;-62
2022/06/10 04:06:21;;;;;;;9.50;5.57;;;;;;;;;;5100549;27;20195;-64
2022/06/10 04:09:08;;;;;;;8.07;4.53;;;;;;;;;;5120568;27;20284;-62
2022/06/10 04:11:35;;;;;;;6.50;4.60;;;;;;;;;;5107584;27;20236;-63
2022/06/10 04:14:03;;;;;;;7.90;5.30;;;;;;;;;;5109392;27;20340;-62
2022/06/10 04:16:30;;;;;;;7.37;4.50;;;;;;;;;;5092743;27;20211;-62
2022/06/10 04:18:58;;;;;;;11.70;4.80;;;;;;;;;;5089309;27;20228;-62
2022/06/10 04:21:25;;;;;;;6.77;4.80;;;;;;;;;;5093828;27;20216;-64
2022/06/10 04:23:53;;;;;;;6.23;4.33;;;;;;;;;;5103971;27;20207;-61
2022/06/10 04:26:20;;;;;;;7.83;4.77;;;;;;;;;;5102738;27;20207;-62
2022/06/10 04:28:48;;;;;;;6.73;3.97;;;;;;;;;;5103725;27;20227;-62
2022/06/10 04:31:15;;;;;;;7.07;4.13;;;;;;;;;;5093827;27;20276;-62
2022/06/10 04:33:43;;;;;;;9.83;4.73;;;;;;;;;;5102524;27;20203;-61
2022/06/10 04:36:13;;;;;;;5.30;4.43;;;;;;;;;;5101594;27;20264;-62
2022/06/10 04:38:40;;;;;;;6.87;4.67;;;;;;;;;;5105247;27;20227;-62
2022/06/10 04:41:08;;;;;;;7.00;4.70;;;;;;;;;;5105285;27;20196;-63
2022/06/10 04:43:37;;;;;;;7.87;4.80;;;;;;;;;;5104466;27;20208;-62
2022/06/10 04:46:05;;;;;;;5.70;3.83;;;;;;;;;;5100514;27;20547;-62
2022/06/10 04:48:33;;;;;;;8.17;4.10;;;;;;;;;;5105733;27;20281;-62
2022/06/10 04:51:01;;;;;;;7.50;4.50;;;;;;;;;;5126877;27;20653;-63
2022/06/10 04:53:28;;;;;;;9.63;5.20;;;;;;;;;;5117726;27;20263;-62
2022/06/10 04:55:55;;;;;;;6.87;4.10;;;;;;;;;;5108593;27;20208;-63
2022/06/10 04:58:23;;;;;;;7.10;4.80;;;;;;;;;;5112701;27;20220;-63
2022/06/10 05:00:54;;;;;;;5.37;4.30;;;;;;;;;;5100641;27;20204;-63
2022/06/10 05:03:21;;;;;;;6.83;3.83;;;;;;;;;;5108584;27;20207;-63
2022/06/10 05:05:48;;;;;;;5.07;3.20;;;;;;;;;;5111207;27;20203;-63
2022/06/10 05:08:18;;;;;;;4.50;3.40;;;;;;;;;;5109691;27;20672;-62
2022/06/10 05:10:48;;;;;;;6.80;3.83;;;;;;;;;;5107702;27;20555;-62
2022/06/10 05:13:17;;;;;;;6.53;3.60;;;;;;;;;;5108661;27;20293;-62
2022/06/10 05:15:45;;;;;;;7.37;2.93;;;;;;;;;;5098636;27;20208;-62
2022/06/10 05:18:14;;;;;;;9.20;3.10;;;;;;;;;;5104210;27;20231;-65
2022/06/10 05:20:42;;;;;;;5.30;3.07;;;;;;;;;;5098513;27;20641;-62
2022/06/10 05:23:11;;;;;;;5.33;2.33;;;;;;;;;;5126327;27;20215;-62
2022/06/10 05:25:38;;;;;;;3.73;1.73;;;;;;;;;;5106718;27;20587;-63
2022/06/10 05:28:06;;;;;;;3.63;1.42;;;;;;;;;;5109861;27;20199;-64
2022/06/10 05:30:34;;;;;;;2.85;1.42;;;;;;;;;;5108733;27;20242;-64
2022/06/10 05:33:03;;;;;;;2.60;1.35;;;;;;;;;;5106214;27;20235;-64
2022/06/10 05:35:31;;;;;;;3.30;1.50;;;;;;;;;;5106845;27;20203;-64
2022/06/10 05:37:58;;;;;;;3.40;1.55;;;;;;;;;;5103851;27;20207;-64
2022/06/10 05:40:27;;;;;;;1.58;1.20;;;;;;;;;;5101894;27;20284;-64
2022/06/10 05:42:55;;;;;;;2.50;1.30;;;;;;;;;;5106820;27;20227;-64
2022/06/10 05:45:22;;;;;;;2.45;1.17;;;;;;;;;;5107915;27;20188;-64
2022/06/10 05:47:53;;;;;;;4.53;1.52;;;;;;;;;;5101548;28;20730;-65
2022/06/10 05:50:27;;;;;;;3.03;1.58;;;;;;;;;;5110201;27;20207;-64
2022/06/10 05:52:55;;;;;;;4.88;1.55;;;;;;;;;;5110685;27;20234;-65
2022/06/10 05:55:23;;;;;;;2.65;1.40;;;;;;;;;;5107732;27;20214;-64
2022/06/10 05:57:51;;;;;;;2.92;1.42;;;;;;;;;;5108990;27;20268;-64
2022/06/10 06:00:21;;;;;;;2.58;1.30;;;;;;;;;;5112919;27;20199;-63
2022/06/10 06:02:49;;;;;;;4.10;1.50;;;;;;;;;;5106665;27;20636;-63
2022/06/10 06:05:17;;;;;;;3.45;1.50;;;;;;;;;;5107794;27;20178;-64
2022/06/10 06:07:46;;;;;;;2.75;1.50;;;;;;;;;;5092126;27;20210;-64
2022/06/10 06:10:17;;;;;;;3.85;1.50;;;;;;;;;;5118767;27;20669;-64
2022/06/10 06:12:45;;;;;;;4.30;1.60;;;;;;;;;;5104112;27;20234;-64
2022/06/10 06:15:13;;;;;;;3.08;1.52;;;;;;;;;;5104356;27;20695;-64
2022/06/10 06:17:41;;;;;;;3.95;1.25;;;;;;;;;;5101484;27;20238;-63
2022/06/10 06:20:09;;;;;;;5.03;1.80;;;;;;;;;;5111205;27;20735;-63
2022/06/10 06:22:36;;;;;;;12.82;7.95;;;;;;;;;;5108340;27;20222;-63
2022/06/10 06:25:04;;;;;;;5.07;2.65;;;;;;;;;;5106547;27;20708;-63
2022/06/10 06:27:31;;;;;;;3.25;1.50;;;;;;;;;;5102316;27;20287;-63
2022/06/10 06:30:00;;;;;;;2.53;1.27;;;;;;;;;;5091768;27;20226;-63
2022/06/10 06:32:28;;;;;;;2.25;1.20;;;;;;;;;;5085105;27;20235;-62
2022/06/10 06:34:55;;;;;;;3.63;1.27;;;;;;;;;;5087785;27;20296;-63
2022/06/10 06:37:22;;;;;;;5.32;1.27;;;;;;;;;;5088999;27;20212;-64
2022/06/10 06:39:50;;;;;;;4.93;1.92;;;;;;;;;;5086746;27;20215;-64
2022/06/10 06:42:17;;;;;;;2.65;1.40;;;;;;;;;;5090978;27;21283;-63
2022/06/10 06:44:45;;;;;;;5.25;1.60;;;;;;;;;;5083736;27;20222;-63
2022/06/10 06:47:33;;;;;;;4.13;1.38;;;;;;;;;;5100831;27;20579;-63
2022/06/10 06:50:00;;;;;;;4.18;1.30;;;;;;;;;;5101747;27;20199;-63
2022/06/10 06:52:28;;;;;;;3.85;1.58;;;;;;;;;;5089992;27;20614;-64
2022/06/10 06:54:55;;;;;;;3.05;1.30;;;;;;;;;;5083389;27;20212;-63
2022/06/10 06:57:25;;;;;;;5.90;1.88;;;;;;;;;;5089494;27;20756;-63
2022/06/10 06:59:53;;;;;;;3.95;1.70;;;;;;;;;;5084839;27;20238;-63
2022/06/10 07:02:21;;;;;;;4.57;1.73;;;;;;;;;;5084874;27;20237;-63
2022/06/10 07:04:48;;;;;;;3.13;1.38;;;;;;;;;;5092199;27;20308;-64
2022/06/10 07:07:15;;;;;;;4.22;1.70;;;;;;;;;;5088140;27;20200;-64
2022/06/10 07:09:43;;;;;;;4.90;2.08;;;;;;;;;;5082142;27;20630;-63
2022/06/10 07:12:10;;;;;;;3.47;1.60;;;;;;;;;;5080613;27;20235;-63
2022/06/10 07:14:38;;;;;;;4.25;1.80;;;;;;;;;;5099177;27;20648;-62
2022/06/10 07:17:06;;;;;;;3.67;1.50;;;;;;;;;;5093801;27;20950;-64
2022/06/10 07:19:33;;;;;;;5.63;1.83;;;;;;;;;;5092390;27;20270;-63
2022/06/10 07:22:01;;;;;;;6.93;1.92;;;;;;;;;;5095546;27;20306;-63
2022/06/10 07:24:28;;;;;;;3.88;1.92;;;;;;;;;;5098424;27;20251;-63
2022/06/10 07:26:56;;;;;;;3.60;1.42;;;;;;;;;;5101494;27;20215;-63
2022/06/10 07:29:23;;;;;;;6.32;2.80;;;;;;;;;;5106167;27;20196;-63
2022/06/10 07:31:51;;;;;;;5.72;1.98;;;;;;;;;;5117923;27;20223;-63
2022/06/10 07:34:18;;;;;;;6.00;2.80;;;;;;;;;;5100574;28;20239;-63
2022/06/10 07:36:46;;;;;;;3.10;1.60;;;;;;;;;;5098012;27;20211;-63
2022/06/10 07:39:14;;;;;;;4.72;1.80;;;;;;;;;;5079642;27;20228;-64
2022/06/10 07:41:57;;;;;;;4.13;1.80;;;;;;;;;;5100108;27;20795;-63
2022/06/10 07:44:25;;;;;;;3.10;1.58;;;;;;;;;;5100124;27;20206;-63
2022/06/10 07:46:53;;;;;;;5.65;2.28;;;;;;;;;;5085500;27;20207;-63
2022/06/10 07:49:28;;;;;;;4.15;1.77;;;;;;;;;;5086476;27;20206;-63
2022/06/10 07:51:57;;;;;;;5.45;1.52;;;;;;;;;;5081746;27;20659;-62
2022/06/10 07:54:25;;;;;;;4.18;1.50;;;;;;;;;;5076449;27;20763;-63
2022/06/10 07:56:53;;;;;;;6.30;1.85;;;;;;;;;;5100648;27;20211;-63
2022/06/10 07:59:20;;;;;;;3.47;1.40;;;;;;;;;;5082412;27;20223;-62
2022/06/10 08:01:48;;;;;;;6.43;1.60;;;;;;;;;;5086167;28;20227;-63
2022/06/10 08:04:15;;;;;;;7.28;1.90;;;;;;;;;;5095201;28;20203;-63
2022/06/10 08:06:44;;;;;;;4.57;1.60;;;;;;;;;;5098754;27;20253;-63
2022/06/10 08:09:12;;;;;;;4.40;1.40;;;;;;;;;;5102547;28;20733;-63
2022/06/10 08:11:39;;;;;;;5.47;2.30;;;;;;;;;;5093891;28;20231;-63
2022/06/10 08:14:07;;;;;;;4.97;1.88;;;;;;;;;;5096376;28;20203;-63
2022/06/10 08:16:35;;;;;;;4.68;1.52;;;;;;;;;;5080042;27;20219;-63
2022/06/10 08:19:04;;;;;;;3.33;1.42;;;;;;;;;;5073162;27;20269;-64
2022/06/10 08:24:19;;;;;;;3.38;1.23;;;;;;;;;;5097113;27;20207;-63
2022/06/10 08:26:47;;;;;;;3.38;1.20;;;;;;;;;;5076612;27;20792;-63
2022/06/10 08:29:17;;;;;;;5.80;1.63;;;;;;;;;;5077850;27;20215;-63
2022/06/10 08:31:44;;;;;;;3.05;1.50;;;;;;;;;;5084238;27;20268;-63
2022/06/10 08:34:12;;;;;;;4.07;1.52;;;;;;;;;;5088188;28;20196;-64
2022/06/10 08:36:41;;;;;;;1.60;1.10;;;;;;;;;;5100326;28;20210;-63
2022/06/10 08:39:09;;;;;;;5.35;1.60;;;;;;;;;;5104223;28;20661;-63
2022/06/10 08:41:49;;;;;;;4.00;1.55;;;;;;;;;;5082976;27;20224;-63
2022/06/10 08:44:24;;;;;;;5.18;1.38;;;;;;;;;;5075885;27;20219;-63
2022/06/10 08:47:10;;;;;;;6.03;1.50;;;;;;;;;;5081396;27;20782;-63
2022/06/10 08:49:38;;;;;;;4.95;1.48;;;;;;;;;;5080711;27;20207;-63
2022/06/10 08:52:08;;;;;;;3.05;1.80;;;;;;;;;;5099162;27;20219;-63
2022/06/10 08:54:54;;;;;;;3.38;1.50;;;;;;;;;;5088879;27;20264;-63
2022/06/10 08:57:25;;;;;;;4.65;1.40;;;;;;;;;;5091851;27;22956;-63
2022/06/10 08:59:54;;;;;;;2.58;1.45;;;;;;;;;;5098056;27;20227;-63
2022/06/10 09:02:42;;;;;;;4.40;1.60;;;;;;;;;;5093859;27;22319;-63
2022/06/10 09:05:23;;;;;;;2.88;1.13;;;;;;;;;;5106362;27;20215;-63
2022/06/10 09:07:53;;;;;;;3.30;1.65;;;;;;;;;;5094382;27;20204;-63
2022/06/10 09:10:23;;;;;;;3.60;1.75;;;;;;;;;;5099922;27;20264;-63
2022/06/10 09:13:06;;;;;;;3.75;1.60;;;;;;;;;;5098244;27;20231;-64
2022/06/10 09:15:37;;;;;;;5.50;1.73;;;;;;;;;;5098319;27;20215;-63
2022/06/10 09:18:08;;;;;;;3.17;1.30;;;;;;;;;;5099236;27;20212;-63
2022/06/10 09:20:41;;;;;;;2.92;1.60;;;;;;;;;;5116331;27;20235;-64
2022/06/10 09:23:32;;;;;;;2.72;1.40;;;;;;;;;;5097988;27;20228;-64
2022/06/10 09:26:07;;;;;;;5.80;1.60;;;;;;;;;;5078168;27;20219;-64
2022/06/10 09:28:36;;;;;;;3.75;1.60;;;;;;;;;;5095555;27;20705;-64
2022/06/10 09:31:21;;;;;;;3.00;1.52;;;;;;;;;;5096574;27;20308;-64
2022/06/10 09:34:01;;;;;;;16.15;2.08;;;;;;;;;;5098782;27;20204;-64
2022/06/10 09:36:28;;;;;;;4.65;2.05;;;;;;;;;;5095245;27;20211;-65
2022/06/10 09:38:59;;;;;;;3.65;1.63;;;;;;;;;;5094028;27;20493;-65
2022/06/10 09:41:51;;;;;;;3.42;1.52;;;;;;;;;;5105181;27;20215;-64
2022/06/10 09:44:28;;;;;;;3.10;1.40;;;;;;;;;;5095399;27;20223;-64
2022/06/10 09:47:07;;;;;;;3.88;1.42;;;;;;;;;;5099783;27;20195;-64
2022/06/10 09:49:55;;;;;;;6.90;2.80;;;;;;;;;;5091500;27;20479;-64
2022/06/10 09:52:45;;;;;;;3.35;1.73;;;;;;;;;;5096759;27;20228;-63
2022/06/10 09:55:19;;;;;;;5.28;1.65;;;;;;;;;;5118966;27;20207;-66
2022/06/10 09:57:55;;;;;;;3.75;1.52;;;;;;;;;;5100782;27;20200;-65
2022/06/10 10:00:59;;;;;;;3.15;1.33;;;;;;;;;;5115538;27;20222;-65
2022/06/10 10:03:39;;;;;;;3.60;1.50;;;;;;;;;;5005211;28;20352;-65
2022/06/10 10:06:09;;;;;;;4.85;1.48;;;;;;;;;;5091743;27;20211;-65
2022/06/10 10:08:37;;;;;;;3.50;1.30;;;;;;;;;;5099753;27;20264;-63
2022/06/10 10:11:25;;;;;;;3.38;1.60;;;;;;;;;;5098422;27;22093;-65
2022/06/10 10:13:55;;;;;;;2.35;1.30;;;;;;;;;;5091861;27;20734;-65
2022/06/10 10:16:26;;;;;;;3.85;1.60;;;;;;;;;;5095606;27;20745;-64
2022/06/10 10:19:13;;;;;;;5.00;1.67;;;;;;;;;;5114311;27;21206;-65
2022/06/10 10:21:51;;;;;;;4.60;1.60;;;;;;;;;;5094692;27;20226;-65
2022/06/10 10:24:25;;;;;;;7.25;1.63;;;;;;;;;;5098227;27;20223;-65
2022/06/10 10:26:53;;;;;;;3.22;1.20;;;;;;;;;;5087787;27;20266;-65
2022/06/10 10:29:26;;;;;;;4.00;1.45;;;;;;;;;;5096230;27;20211;-65
2022/06/10 10:32:15;;;;;;;1.85;1.02;;;;;;;;;;5101364;27;20563;-65
2022/06/10 10:34:45;;;;;;;2.80;1.20;;;;;;;;;;5108604;27;20778;-66
2022/06/10 10:37:33;;;;;;;1.67;1.13;;;;;;;;;;5101480;27;20199;-64
2022/06/10 10:40:06;;;;;;;3.78;1.27;;;;;;;;;;5103085;27;20305;-64
2022/06/10 10:42:35;;;;;;;2.97;1.35;;;;;;;;;;5116844;27;20265;-65
2022/06/10 10:45:05;;;;;;;1.75;1.02;;;;;;;;;;5106155;27;20207;-64
2022/06/10 10:47:35;;;;;;;1.45;1.20;;;;;;;;;;5107461;27;20214;-65
2022/06/10 10:50:05;;;;;;;1.75;1.20;;;;;;;;;;5098916;27;20204;-65
2022/06/10 10:52:35;;;;;;;2.88;1.40;;;;;;;;;;5118067;27;20631;-65
2022/06/10 10:55:08;;;;;;;3.85;1.50;;;;;;;;;;5102416;28;20299;-65
2022/06/10 10:57:37;;;;;;;3.47;1.38;;;;;;;;;;5110396;27;20618;-64
2022/06/10 11:00:07;;;;;;;2.10;1.17;;;;;;;;;;5106080;27;20231;-65
2022/06/10 11:02:38;;;;;;;2.00;1.23;;;;;;;;;;5110247;27;20231;-65
2022/06/10 11:05:24;;;;;;;3.05;1.40;;;;;;;;;;5108691;28;20727;-65
2022/06/10 11:08:10;;;;;;;2.65;1.40;;;;;;;;;;5104891;28;20291;-66
2022/06/10 11:10:50;;;;;;;2.30;1.20;;;;;;;;;;5102680;27;20214;-65
2022/06/10 11:13:23;;;;;;;2.85;1.30;;;;;;;;;;5103489;28;20228;-65
2022/06/10 11:15:51;;;;;;;3.90;1.30;;;;;;;;;;5106864;27;20204;-65
2022/06/10 11:18:19;;;;;;;2.83;1.13;;;;;;;;;;5121781;27;20211;-65
2022/06/10 11:20:47;;;;;;;2.42;1.50;;;;;;;;;;5107250;27;20222;-65
2022/06/10 11:23:15;;;;;;;2.72;1.33;;;;;;;;;;5108744;28;20291;-65
2022/06/10 11:26:03;;;;;;;3.90;1.35;;;;;;;;;;5104732;27;20243;-65
2022/06/10 11:28:34;;;;;;;2.22;1.40;;;;;;;;;;5102039;27;20206;-65
2022/06/10 11:31:02;;;;;;;2.35;1.30;;;;;;;;;;5117888;27;20214;-65
2022/06/10 11:33:42;;;;;;;5.07;1.40;;;;;;;;;;5104179;27;20208;-65
2022/06/10 11:36:14;;;;;;;3.15;1.42;;;;;;;;;;5104652;27;20207;-65
2022/06/10 11:38:54;;;;;;;2.30;1.17;;;;;;;;;;5106024;27;20257;-65
2022/06/10 11:41:26;;;;;;;4.90;1.30;;;;;;;;;;5105072;28;20693;-65
2022/06/10 11:44:26;;;;;;;3.45;1.63;;;;;;;;;;5103998;28;20211;-65
2022/06/10 11:46:59;;;;;;;2.65;1.45;;;;;;;;;;5073541;28;20734;-66
2022/06/10 11:49:40;;;;;;;3.38;1.52;;;;;;;;;;5109268;28;20200;-64
2022/06/10 11:52:13;;;;;;;2.88;1.50;;;;;;;;;;5105452;27;20276;-64
2022/06/10 11:54:41;;;;;;;2.13;1.40;;;;;;;;;;5107250;28;20258;-64
2022/06/10 12:00:04;;;;;;;3.80;1.60;;;;;;;;;;5120449;28;20592;-64
2022/06/10 12:02:40;;;;;;;7.65;1.52;;;;;;;;;;5100201;28;20222;-63
2022/06/10 12:05:21;;;;;;;5.25;3.20;;;;;;;;;;5104725;28;20231;-64
2022/06/10 12:07:57;;;;;;;3.92;1.23;;;;;;;;;;5106181;28;20243;-66
2022/06/10 12:10:31;;;;;;;2.15;1.35;;;;;;;;;;5103468;28;20207;-65
2022/06/10 12:12:59;;;;;;;2.60;1.30;;;;;;;;;;5098133;28;20280;-65
2022/06/10 12:15:32;;;;;;;2.92;1.48;;;;;;;;;;5099401;28;20218;-64
2022/06/10 12:18:06;;;;;;;2.25;1.30;;;;;;;;;;5100701;28;20230;-64
2022/06/10 12:20:41;;;;;;;1.50;1.10;;;;;;;;;;5099408;27;20589;-65
2022/06/10 12:23:27;;;;;;;2.90;1.10;;;;;;;;;;5104413;27;20223;-65
2022/06/10 12:26:11;;;;;;;2.25;1.10;;;;;;;;;;5107840;27;20215;-65
2022/06/10 12:28:42;;;;;;;3.42;1.20;;;;;;;;;;5103659;27;20551;-65
2022/06/10 12:31:39;;;;;;;2.60;1.25;;;;;;;;;;5105343;27;20246;-64
2022/06/10 12:34:07;;;;;;;2.63;1.13;;;;;;;;;;5095837;27;20211;-64
2022/06/10 12:36:39;;;;;;;1.30;1.00;;;;;;;;;;5122317;27;20199;-64
2022/06/10 12:39:28;;;;;;;2.75;1.23;;;;;;;;;;5103750;27;20200;-65
2022/06/10 12:42:10;;;;;;;2.92;1.30;;;;;;;;;;5103154;27;20238;-64
2022/06/10 12:44:48;;;;;;;2.33;1.20;;;;;;;;;;5106774;27;20555;-64
2022/06/10 12:47:20;;;;;;;1.45;0.80;;;;;;;;;;5103615;27;20204;-64
2022/06/10 12:49:55;;;;;;;3.97;1.30;;;;;;;;;;5104833;27;20817;-64
2022/06/10 12:52:44;;;;;;;2.33;1.20;;;;;;;;;;5099466;27;20214;-64
2022/06/10 12:55:19;;;;;;;2.83;1.50;;;;;;;;;;5103396;28;20201;-65
2022/06/10 12:57:48;;;;;;;4.38;1.38;;;;;;;;;;5100649;27;20203;-63
2022/06/10 13:00:18;;;;;;;2.30;1.30;;;;;;;;;;5110683;27;20226;-64
2022/06/10 13:02:45;;;;;;;1.35;1.23;;;;;;;;;;5109990;27;20227;-64
2022/06/10 13:05:18;;;;;;;2.97;1.55;;;;;;;;;;5102690;27;20214;-65
2022/06/10 13:07:47;;;;;;;2.60;1.42;;;;;;;;;;5098910;27;20208;-65
2022/06/10 13:10:33;;;;;;;1.40;1.25;;;;;;;;;;5096099;27;20211;-65
2022/06/10 13:13:15;;;;;;;2.33;1.40;;;;;;;;;;5099935;27;22665;-66
2022/06/10 13:15:49;;;;;;;3.78;1.67;;;;;;;;;;5101847;27;20211;-65
2022/06/10 13:18:16;;;;;;;4.00;1.50;;;;;;;;;;5106198;27;20200;-64
2022/06/10 13:20:45;;;;;;;2.35;1.23;;;;;;;;;;5101359;27;20708;-65
2022/06/10 13:23:23;;;;;;;2.03;1.10;;;;;;;;;;5103552;27;20580;-66
2022/06/10 13:26:12;;;;;;;1.25;1.05;;;;;;;;;;5107515;27;20581;-65
2022/06/10 13:28:41;;;;;;;2.70;1.55;;;;;;;;;;5099584;27;20549;-65
2022/06/10 13:31:13;;;;;;;2.53;1.30;;;;;;;;;;5107808;27;20246;-66
2022/06/10 13:33:59;;;;;;;2.60;1.38;;;;;;;;;;5104303;27;20272;-65
2022/06/10 13:36:28;;;;;;;2.53;1.45;;;;;;;;;;5120836;27;20676;-64
2022/06/10 13:38:57;;;;;;;2.65;1.40;;;;;;;;;;5119092;27;21569;-65
2022/06/10 13:44:20;;;;;;;1.95;1.50;;;;;;;;;;5123528;27;20207;-65
2022/06/10 13:46:47;;;;;;;2.83;1.60;;;;;;;;;;5096782;27;20721;-65
2022/06/10 13:49:42;;;;;;;1.23;1.02;;;;;;;;;;5103930;27;20235;-66
2022/06/10 13:52:23;;;;;;;2.72;1.30;;;;;;;;;;5116413;27;20224;-64
2022/06/10 13:54:51;;;;;;;2.22;1.10;;;;;;;;;;5105610;27;20576;-66
2022/06/10 13:57:19;;;;;;;1.42;1.27;;;;;;;;;;5106066;27;20200;-66
2022/06/10 13:59:58;;;;;;;2.58;1.38;;;;;;;;;;5105464;27;20708;-64
2022/06/10 14:02:33;;;;;;;3.50;1.40;;;;;;;;;;5091358;27;20235;-64
2022/06/10 14:05:02;;;;;;;2.25;1.35;;;;;;;;;;5095932;27;20580;-65
2022/06/10 14:07:36;;;;;;;2.45;1.35;;;;;;;;;;5116626;27;20601;-64
2022/06/10 14:10:23;;;;;;;1.20;1.10;;;;;;;;;;5090761;27;20295;-65
2022/06/10 14:12:58;;;;;;;2.30;1.38;;;;;;;;;;5106532;27;20319;-65
2022/06/10 14:15:28;;;;;;;1.77;1.40;;;;;;;;;;5110035;27;20668;-65
2022/06/10 14:17:57;;;;;;;2.15;1.17;;;;;;;;;;5091507;27;20199;-65
2022/06/10 14:20:30;;;;;;;3.17;1.40;;;;;;;;;;5093261;27;20228;-65
2022/06/10 14:23:02;;;;;;;2.85;1.13;;;;;;;;;;5093787;27;20219;-65
2022/06/10 14:25:30;;;;;;;3.13;1.55;;;;;;;;;;5092905;27;20292;-65
2022/06/10 14:27:57;;;;;;;1.88;1.20;;;;;;;;;;5091760;27;20207;-65
2022/06/10 14:30:34;;;;;;;4.40;1.23;;;;;;;;;;5097774;27;20234;-65
2022/06/10 14:33:13;;;;;;;2.53;1.40;;;;;;;;;;5102053;27;20219;-65
2022/06/10 14:35:42;;;;;;;1.58;1.30;;;;;;;;;;5109385;27;20212;-65
2022/06/10 14:38:13;;;;;;;2.40;1.15;;;;;;;;;;5106341;28;20200;-65
2022/06/10 14:40:53;;;;;;;1.27;1.13;;;;;;;;;;5105543;27;20227;-65
2022/06/10 14:43:22;;;;;;;7.25;3.30;;;;;;;;;;5101967;27;20304;-64
2022/06/10 14:46:10;;;;;;;3.53;1.33;;;;;;;;;;5087044;27;20701;-65
2022/06/10 14:48:41;;;;;;;2.38;1.40;;;;;;;;;;5090926;27;20607;-65
2022/06/10 14:51:17;;;;;;;2.65;1.30;;;;;;;;;;5087874;27;21026;-65
2022/06/10 14:53:47;;;;;;;2.78;1.42;;;;;;;;;;5104046;27;20981;-65
2022/06/10 14:56:20;;;;;;;3.65;1.30;;;;;;;;;;5088360;27;20199;-65
2022/06/10 14:58:48;;;;;;;1.77;1.27;;;;;;;;;;5090015;27;20282;-65
2022/06/10 15:01:21;;;;;;;3.63;1.50;;;;;;;;;;5087344;27;20235;-64
2022/06/10 15:03:48;;;;;;;1.35;1.05;;;;;;;;;;5087086;27;20207;-64
2022/06/10 15:06:27;;;;;;;4.05;1.15;;;;;;;;;;5109272;27;20248;-65
2022/06/10 15:08:57;;;;;;;1.85;1.15;;;;;;;;;;5089193;27;20582;-66
2022/06/10 15:11:25;;;;;;;2.47;1.10;;;;;;;;;;5090999;27;20219;-65
2022/06/10 15:13:52;;;;;;;3.22;1.02;;;;;;;;;;5086164;27;20216;-64
2022/06/10 15:16:21;;;;;;;3.97;1.33;;;;;;;;;;5087968;27;20211;-64
2022/06/10 15:18:48;;;;;;;2.50;1.42;;;;;;;;;;5090245;27;20207;-63
2022/06/10 15:21:19;;;;;;;2.38;1.10;;;;;;;;;;5090178;27;20251;-64
2022/06/10 15:23:48;;;;;;;3.00;1.20;;;;;;;;;;5089629;27;20195;-64